Time;durP1;ratioP1;P1;durP2;ratioP2;P2;SDS_P1;SDS_P2;PMS_P1;PMS_P2;Temp;Humidity;BMP_temperature;BMP_pressure;BME280_temperature;BME280_humidity;BME280_pressure;Samples;Min_cycle;Max_cycle;Signal;HPM_P1;HPM_P2
2022/06/29 00:00:15;;;;;;;3.60;1.25;;;15.40;12.40;;;;;;5082442;28;35729;-76
2022/06/29 00:02:43;;;;;;;4.00;1.30;;;15.30;12.30;;;;;;5083295;28;34320;-76
2022/06/29 00:05:11;;;;;;;1.88;1.20;;;15.20;12.00;;;;;;5083140;28;34213;-77
2022/06/29 00:07:37;;;;;;;0.93;0.93;;;15.20;12.20;;;;;;5083759;28;34144;-76
2022/06/29 00:10:03;;;;;;;1.20;1.10;;;15.20;12.20;;;;;;5084303;28;34969;-76
2022/06/29 00:12:30;;;;;;;1.65;1.30;;;15.10;12.40;;;;;;5083125;28;34115;-76
2022/06/29 00:14:56;;;;;;;1.05;1.02;;;15.10;12.40;;;;;;5083036;28;34004;-76
2022/06/29 00:17:23;;;;;;;1.25;0.90;;;15.10;12.40;;;;;;5084496;28;34151;-76
2022/06/29 00:19:49;;;;;;;4.97;1.50;;;15.00;12.60;;;;;;5083123;28;36450;-76
2022/06/29 00:22:15;;;;;;;1.08;1.00;;;15.00;12.80;;;;;;5065874;28;34158;-76
2022/06/29 00:24:42;;;;;;;2.97;1.33;;;15.00;12.70;;;;;;5082966;28;34251;-76
2022/06/29 00:27:08;;;;;;;1.48;1.00;;;15.00;13.00;;;;;;5084326;28;34368;-76
2022/06/29 00:29:34;;;;;;;1.77;1.42;;;14.90;12.80;;;;;;5082700;28;35669;-76
2022/06/29 00:32:01;;;;;;;1.25;1.10;;;14.90;12.90;;;;;;5082983;28;34156;-76
2022/06/29 00:34:27;;;;;;;1.10;1.10;;;14.90;13.00;;;;;;5049526;28;34043;-76
2022/06/29 00:36:53;;;;;;;2.58;1.40;;;14.90;13.00;;;;;;5066331;28;34004;-76
2022/06/29 00:39:19;;;;;;;1.40;1.30;;;14.80;13.10;;;;;;5048742;28;35620;-76
2022/06/29 00:41:46;;;;;;;2.03;1.25;;;14.80;13.20;;;;;;5082692;28;34118;-76
2022/06/29 00:44:17;;;;;;;2.42;1.38;;;14.70;13.20;;;;;;5082758;28;34340;-76
2022/06/29 00:46:53;;;;;;;3.28;1.40;;;14.70;13.80;;;;;;5082968;28;34468;-76
2022/06/29 00:49:22;;;;;;;1.67;1.30;;;14.70;14.40;;;;;;5082418;28;35850;-77
2022/06/29 00:51:53;;;;;;;1.77;1.20;;;14.70;13.40;;;;;;5083784;28;34143;-76
2022/06/29 00:54:23;;;;;;;1.30;1.20;;;14.60;13.60;;;;;;5082802;28;34116;-76
2022/06/29 00:56:50;;;;;;;3.97;1.05;;;14.60;13.60;;;;;;5065594;28;34155;-76
2022/06/29 00:59:19;;;;;;;3.45;1.20;;;14.60;13.50;;;;;;5081653;28;35762;-77
2022/06/29 01:01:45;;;;;;;1.30;1.20;;;14.50;13.70;;;;;;5083279;28;34171;-76
2022/06/29 01:04:12;;;;;;;2.10;1.35;;;14.50;13.70;;;;;;5082878;28;34184;-76
2022/06/29 01:06:38;;;;;;;1.67;1.27;;;14.50;13.80;;;;;;5065785;28;34103;-76
2022/06/29 01:09:04;;;;;;;1.20;1.10;;;14.50;13.90;;;;;;5082645;28;34628;-77
2022/06/29 01:11:32;;;;;;;1.38;1.15;;;14.50;14.00;;;;;;5069161;28;34244;-76
2022/06/29 01:13:58;;;;;;;2.38;1.50;;;14.40;14.20;;;;;;5086383;28;34083;-76
2022/06/29 01:16:25;;;;;;;1.50;1.40;;;14.40;14.20;;;;;;5087092;28;34083;-77
2022/06/29 01:18:51;;;;;;;1.40;1.30;;;14.50;14.40;;;;;;5068710;28;36383;-77
2022/06/29 01:21:19;;;;;;;2.25;1.30;;;14.50;14.40;;;;;;5085923;28;34233;-76
2022/06/29 01:23:46;;;;;;;3.05;1.45;;;14.50;14.80;;;;;;5085902;28;34010;-77
2022/06/29 01:26:12;;;;;;;2.75;1.20;;;14.50;14.60;;;;;;5086278;28;34288;-76
2022/06/29 01:28:46;;;;;;;1.73;1.63;;;14.50;14.60;;;;;;5085877;28;36533;-76
2022/06/29 01:31:14;;;;;;;1.58;1.48;;;14.60;15.40;;;;;;5069901;28;34126;-77
2022/06/29 01:33:40;;;;;;;1.15;1.15;;;14.60;15.00;;;;;;5085852;28;34205;-76
2022/06/29 01:36:06;;;;;;;1.42;1.33;;;14.60;14.90;;;;;;5085927;28;34150;-76
2022/06/29 01:38:33;;;;;;;2.00;1.30;;;14.70;14.90;;;;;;5068931;28;35807;-76
2022/06/29 01:40:59;;;;;;;4.03;1.60;;;14.70;15.00;;;;;;5086537;28;34268;-76
2022/06/29 01:43:24;;;;;;;1.90;1.30;;;14.80;14.90;;;;;;5086845;28;34409;-77
2022/06/29 01:45:50;;;;;;;1.55;1.40;;;14.80;14.90;;;;;;5068875;28;34397;-77
2022/06/29 01:48:16;;;;;;;1.40;1.30;;;14.80;14.90;;;;;;5068136;28;35631;-76
2022/06/29 01:50:42;;;;;;;1.35;1.25;;;14.90;14.90;;;;;;5086957;28;34069;-77
2022/06/29 01:53:08;;;;;;;2.45;1.45;;;14.90;14.90;;;;;;5086725;28;34160;-77
2022/06/29 01:55:34;;;;;;;8.00;1.80;;;15.00;15.00;;;;;;5085630;28;34132;-77
2022/06/29 01:58:00;;;;;;;1.55;1.45;;;15.00;15.00;;;;;;5085325;28;36528;-77
2022/06/29 02:00:26;;;;;;;1.90;1.40;;;15.00;15.10;;;;;;5085351;28;34263;-77
2022/06/29 02:02:52;;;;;;;1.40;1.30;;;15.00;15.10;;;;;;5068780;28;34182;-77
2022/06/29 02:05:18;;;;;;;2.58;1.40;;;15.10;15.20;;;;;;5085631;28;34490;-77
2022/06/29 02:07:43;;;;;;;1.40;1.30;;;15.10;15.20;;;;;;5086785;28;34195;-76
2022/06/29 02:10:10;;;;;;;1.33;1.23;;;15.20;15.20;;;;;;5086239;28;34112;-77
2022/06/29 02:12:36;;;;;;;1.30;1.20;;;15.20;15.10;;;;;;5085633;28;34135;-77
2022/06/29 02:15:02;;;;;;;1.30;1.20;;;15.30;15.20;;;;;;5085652;28;34077;-77
2022/06/29 02:17:27;;;;;;;1.45;1.35;;;15.30;15.20;;;;;;5068833;28;36072;-77
2022/06/29 02:19:53;;;;;;;1.70;1.17;;;15.30;15.20;;;;;;5085591;28;34029;-77
2022/06/29 02:22:19;;;;;;;1.50;1.30;;;15.30;15.30;;;;;;5084251;28;34247;-77
2022/06/29 02:24:45;;;;;;;2.25;1.65;;;15.30;15.30;;;;;;5086925;28;34139;-77
2022/06/29 02:27:11;;;;;;;1.40;1.30;;;15.30;15.20;;;;;;5084373;28;35744;-77
2022/06/29 02:29:37;;;;;;;1.65;1.20;;;15.30;15.80;;;;;;5085528;28;34294;-77
2022/06/29 02:34:44;;;;;;;2.25;1.50;;;15.30;15.30;;;;;;5085498;28;34363;-77
2022/06/29 02:37:12;;;;;;;1.17;1.10;;;15.30;15.30;;;;;;5084778;28;35712;-77
2022/06/29 02:39:38;;;;;;;1.38;1.27;;;15.40;15.30;;;;;;5068577;28;34302;-77
2022/06/29 02:42:05;;;;;;;1.63;1.30;;;15.40;15.20;;;;;;5085387;28;34305;-77
2022/06/29 02:44:31;;;;;;;1.55;1.27;;;15.40;15.20;;;;;;5085025;28;34018;-77
2022/06/29 02:46:57;;;;;;;3.20;1.40;;;15.40;15.20;;;;;;5085014;28;36512;-77
2022/06/29 02:49:23;;;;;;;1.52;1.20;;;15.40;15.20;;;;;;5067624;28;34306;-77
2022/06/29 02:51:49;;;;;;;2.03;1.45;;;15.40;15.40;;;;;;5084500;28;34318;-77
2022/06/29 02:54:15;;;;;;;1.48;1.38;;;15.40;15.40;;;;;;5084277;28;34459;-77
2022/06/29 02:56:41;;;;;;;1.63;1.48;;;15.40;15.50;;;;;;5084668;28;35776;-78
2022/06/29 02:59:07;;;;;;;1.30;1.20;;;15.40;15.50;;;;;;5086468;28;34391;-77
2022/06/29 03:01:33;;;;;;;4.88;1.35;;;15.40;15.40;;;;;;5087600;28;34205;-78
2022/06/29 03:04:00;;;;;;;2.60;1.50;;;15.40;15.50;;;;;;5087052;28;34392;-78
2022/06/29 03:06:26;;;;;;;2.40;1.25;;;15.40;15.60;;;;;;5085629;28;35393;-77
2022/06/29 03:08:52;;;;;;;1.42;1.33;;;15.40;15.70;;;;;;5085210;28;34096;-78
2022/06/29 03:11:18;;;;;;;5.75;1.55;;;15.50;15.70;;;;;;5084735;28;34210;-79
2022/06/29 03:13:44;;;;;;;2.35;1.70;;;15.50;15.80;;;;;;5085549;28;34169;-78
2022/06/29 03:16:10;;;;;;;1.48;1.38;;;15.50;15.80;;;;;;5067276;28;35536;-78
2022/06/29 03:18:36;;;;;;;1.75;1.40;;;15.50;15.80;;;;;;5084551;28;34346;-78
2022/06/29 03:21:02;;;;;;;3.47;1.60;;;15.50;15.80;;;;;;5084624;28;34120;-78
2022/06/29 03:23:28;;;;;;;1.60;1.50;;;15.50;15.80;;;;;;5085074;28;34219;-78
2022/06/29 03:25:54;;;;;;;1.52;1.42;;;15.60;15.90;;;;;;5084690;28;35557;-78
2022/06/29 03:28:20;;;;;;;1.40;1.30;;;15.60;15.90;;;;;;5067652;28;34405;-77
2022/06/29 03:30:45;;;;;;;2.08;1.42;;;15.60;15.90;;;;;;5086018;28;34091;-77
2022/06/29 03:33:11;;;;;;;1.67;1.58;;;15.60;15.90;;;;;;5067763;28;34334;-77
2022/06/29 03:35:37;;;;;;;1.67;1.30;;;15.70;16.00;;;;;;5085082;28;35623;-77
2022/06/29 03:38:03;;;;;;;1.50;1.40;;;15.70;15.90;;;;;;5086296;28;34008;-77
2022/06/29 03:40:29;;;;;;;2.72;1.33;;;15.70;16.00;;;;;;5085796;28;34171;-78
2022/06/29 03:42:55;;;;;;;2.75;1.58;;;15.70;15.90;;;;;;5084716;28;34192;-77
2022/06/29 03:45:22;;;;;;;3.10;1.40;;;15.70;16.00;;;;;;5084471;28;36164;-77
2022/06/29 03:47:49;;;;;;;3.72;1.60;;;15.80;16.00;;;;;;5086421;28;34123;-77
2022/06/29 03:50:15;;;;;;;2.30;1.55;;;15.80;16.00;;;;;;5084619;28;34039;-78
2022/06/29 03:52:41;;;;;;;1.70;1.45;;;15.80;16.00;;;;;;5086055;28;34340;-77
2022/06/29 03:55:07;;;;;;;4.68;1.50;;;15.80;15.90;;;;;;5084548;28;35469;-77
2022/06/29 03:57:33;;;;;;;2.58;1.30;;;15.80;15.80;;;;;;5068252;28;34263;-77
2022/06/29 03:59:59;;;;;;;1.40;1.30;;;15.80;15.80;;;;;;5085260;28;34346;-77
2022/06/29 04:02:25;;;;;;;1.60;1.50;;;15.90;15.80;;;;;;5084278;28;34184;-77
2022/06/29 04:04:52;;;;;;;1.60;1.33;;;15.90;15.80;;;;;;5085526;28;34293;-78
2022/06/29 04:07:18;;;;;;;1.48;1.38;;;15.90;15.80;;;;;;5084913;28;34470;-78
2022/06/29 04:09:44;;;;;;;1.73;1.40;;;15.90;15.80;;;;;;5084329;28;34105;-77
2022/06/29 04:12:10;;;;;;;1.60;1.50;;;15.90;15.80;;;;;;5084649;28;34526;-77
2022/06/29 04:14:36;;;;;;;1.50;1.40;;;15.90;15.90;;;;;;5084639;28;36757;-77
2022/06/29 04:17:02;;;;;;;2.38;1.35;;;15.90;16.00;;;;;;5084259;28;34142;-77
2022/06/29 04:19:28;;;;;;;1.85;1.38;;;16.00;16.00;;;;;;5084937;28;34092;-77
2022/06/29 04:21:55;;;;;;;1.65;1.55;;;16.00;16.20;;;;;;5084473;28;34439;-77
2022/06/29 04:24:22;;;;;;;1.48;1.30;;;16.00;16.20;;;;;;5066748;28;36192;-78
2022/06/29 04:26:48;;;;;;;2.60;1.33;;;16.00;16.20;;;;;;5085037;28;34128;-78
2022/06/29 04:29:14;;;;;;;1.25;1.15;;;16.10;16.10;;;;;;5067464;28;34147;-77
2022/06/29 04:31:41;;;;;;;1.50;1.23;;;16.10;16.00;;;;;;5085712;28;34174;-78
2022/06/29 04:34:07;;;;;;;2.20;1.58;;;16.10;16.20;;;;;;5084831;28;34075;-77
2022/06/29 04:36:33;;;;;;;2.53;1.42;;;16.20;16.10;;;;;;5084147;28;34094;-77
2022/06/29 04:38:58;;;;;;;2.42;1.58;;;16.20;16.10;;;;;;5084312;28;34012;-77
2022/06/29 04:41:24;;;;;;;1.60;1.50;;;16.30;16.10;;;;;;5083802;28;34266;-77
2022/06/29 04:43:51;;;;;;;1.50;1.40;;;16.30;16.10;;;;;;5066581;28;36594;-77
2022/06/29 04:46:21;;;;;;;3.60;1.42;;;16.30;16.00;;;;;;5082762;28;34154;-77
2022/06/29 04:48:50;;;;;;;2.90;1.30;;;16.30;16.10;;;;;;5083622;28;34120;-77
2022/06/29 04:51:16;;;;;;;1.30;1.20;;;16.40;16.20;;;;;;5066722;28;34134;-77
2022/06/29 04:53:44;;;;;;;3.47;1.58;;;16.40;16.10;;;;;;5084997;28;34392;-77
2022/06/29 04:56:09;;;;;;;2.88;1.40;;;16.50;16.10;;;;;;5083263;28;34173;-77
2022/06/29 04:58:35;;;;;;;2.35;1.40;;;16.50;16.10;;;;;;5083407;28;34132;-77
2022/06/29 05:01:01;;;;;;;1.65;1.42;;;16.60;16.10;;;;;;5083294;28;34134;-77
2022/06/29 05:03:27;;;;;;;1.60;1.50;;;16.60;16.00;;;;;;5083069;28;35943;-77
2022/06/29 05:05:53;;;;;;;1.67;1.58;;;16.70;16.10;;;;;;5084055;28;33992;-77
2022/06/29 05:08:19;;;;;;;2.72;1.50;;;16.80;16.10;;;;;;5083356;28;34080;-77
2022/06/29 05:10:45;;;;;;;2.03;1.50;;;16.80;16.10;;;;;;5083777;28;34205;-77
2022/06/29 05:13:11;;;;;;;3.72;1.52;;;16.80;16.10;;;;;;5084077;28;35459;-77
2022/06/29 05:15:38;;;;;;;3.53;1.50;;;16.90;16.00;;;;;;5084379;28;34140;-77
2022/06/29 05:18:04;;;;;;;3.53;1.67;;;17.00;15.70;;;;;;5084840;28;34243;-77
2022/06/29 05:20:30;;;;;;;1.90;1.80;;;17.00;15.60;;;;;;5083779;28;34611;-78
2022/06/29 05:22:56;;;;;;;2.15;1.65;;;17.00;15.60;;;;;;5066786;28;36588;-77
2022/06/29 05:25:23;;;;;;;2.70;1.48;;;17.10;15.70;;;;;;5083010;28;34137;-77
2022/06/29 05:27:50;;;;;;;2.90;1.60;;;17.20;15.70;;;;;;5066748;28;33713;-77
2022/06/29 05:30:16;;;;;;;3.95;1.60;;;17.30;15.60;;;;;;5083427;28;34408;-77
2022/06/29 05:32:43;;;;;;;2.03;1.40;;;17.40;15.40;;;;;;5084081;28;34433;-77
2022/06/29 05:35:09;;;;;;;3.28;1.70;;;17.50;15.40;;;;;;5083384;28;34325;-77
2022/06/29 05:37:36;;;;;;;2.55;1.52;;;17.50;15.30;;;;;;5084149;28;34168;-77
2022/06/29 05:40:02;;;;;;;1.70;1.60;;;17.60;15.40;;;;;;5083439;28;34131;-78
2022/06/29 05:42:28;;;;;;;2.90;1.52;;;17.70;15.40;;;;;;5083224;28;35810;-77
2022/06/29 05:44:54;;;;;;;2.70;1.52;;;17.70;15.30;;;;;;5082864;28;34154;-77
2022/06/29 05:47:20;;;;;;;1.75;1.60;;;17.80;15.30;;;;;;5083644;28;34108;-77
2022/06/29 05:49:46;;;;;;;4.15;1.63;;;17.80;15.00;;;;;;5082649;28;34282;-77
2022/06/29 05:52:12;;;;;;;4.35;1.42;;;17.80;15.00;;;;;;5064579;28;35630;-77
2022/06/29 05:54:38;;;;;;;1.55;1.45;;;17.80;15.00;;;;;;5065583;28;34310;-77
2022/06/29 05:57:05;;;;;;;2.10;1.90;;;17.80;15.00;;;;;;5085010;28;34292;-78
2022/06/29 05:59:32;;;;;;;2.05;1.50;;;17.80;14.90;;;;;;5086755;28;34149;-77
2022/06/29 06:01:58;;;;;;;1.63;1.40;;;17.80;14.90;;;;;;5085428;28;36635;-77
2022/06/29 06:04:25;;;;;;;1.63;1.52;;;17.80;14.80;;;;;;5085509;28;34229;-77
2022/06/29 06:06:52;;;;;;;2.47;1.55;;;17.80;14.80;;;;;;5085605;28;34168;-77
2022/06/29 06:09:25;;;;;;;3.05;1.67;;;17.80;14.70;;;;;;5085440;28;34316;-77
2022/06/29 06:11:51;;;;;;;1.98;1.25;;;17.90;14.60;;;;;;5085329;28;35833;-77
2022/06/29 06:14:17;;;;;;;6.78;1.70;;;17.90;14.60;;;;;;5085235;28;34334;-77
2022/06/29 06:16:42;;;;;;;3.88;1.70;;;18.00;14.50;;;;;;5085241;28;34525;-77
2022/06/29 06:19:08;;;;;;;3.20;1.80;;;18.00;14.50;;;;;;5086649;28;34150;-77
2022/06/29 06:21:35;;;;;;;1.98;1.50;;;18.00;14.40;;;;;;5085285;28;35536;-77
2022/06/29 06:24:01;;;;;;;3.33;1.73;;;18.00;14.40;;;;;;5051929;28;34122;-77
2022/06/29 06:26:27;;;;;;;3.80;1.60;;;18.00;14.30;;;;;;5067942;28;34168;-77
2022/06/29 06:28:53;;;;;;;3.33;1.65;;;18.10;14.40;;;;;;5085937;28;34200;-77
2022/06/29 06:31:19;;;;;;;2.20;2.00;;;18.20;14.40;;;;;;5085999;28;34276;-77
2022/06/29 06:33:45;;;;;;;2.17;1.70;;;18.20;14.30;;;;;;5068599;28;34086;-77
2022/06/29 06:36:11;;;;;;;1.50;1.40;;;18.30;14.30;;;;;;5068012;28;34301;-77
2022/06/29 06:38:37;;;;;;;3.05;1.75;;;18.30;14.20;;;;;;5085862;28;34222;-76
2022/06/29 06:43:44;;;;;;;1.88;1.50;;;18.40;14.10;;;;;;5085572;28;34150;-77
2022/06/29 06:46:10;;;;;;;5.53;1.73;;;18.40;14.10;;;;;;5084358;28;34186;-77
2022/06/29 06:48:37;;;;;;;3.78;1.52;;;18.40;14.00;;;;;;5067820;28;34525;-77
2022/06/29 06:51:03;;;;;;;2.40;1.80;;;18.40;14.00;;;;;;5068196;28;36403;-77
2022/06/29 06:53:29;;;;;;;4.20;1.55;;;18.50;14.00;;;;;;5067746;28;34128;-77
2022/06/29 06:56:06;;;;;;;7.65;1.80;;;18.50;14.10;;;;;;5085300;28;34367;-77
2022/06/29 06:58:35;;;;;;;1.75;1.65;;;18.60;14.30;;;;;;5085489;28;34133;-77
2022/06/29 07:01:05;;;;;;;1.70;1.60;;;18.60;13.90;;;;;;5084354;28;36324;-77
2022/06/29 07:03:32;;;;;;;2.97;1.58;;;18.70;14.10;;;;;;5067916;28;34193;-77
2022/06/29 07:06:00;;;;;;;2.60;1.40;;;18.70;13.90;;;;;;5085154;28;34315;-77
2022/06/29 07:08:26;;;;;;;3.30;1.60;;;18.80;13.70;;;;;;5084059;28;34124;-77
2022/06/29 07:10:52;;;;;;;5.75;1.83;;;18.90;13.60;;;;;;5067346;28;36434;-77
2022/06/29 07:13:18;;;;;;;3.97;2.00;;;18.90;13.50;;;;;;5084507;28;34461;-77
2022/06/29 07:15:44;;;;;;;3.55;1.67;;;19.00;13.50;;;;;;5067404;28;34309;-77
2022/06/29 07:18:10;;;;;;;3.78;1.77;;;19.00;13.50;;;;;;5100715;28;34139;-77
2022/06/29 07:20:36;;;;;;;1.50;1.40;;;19.10;13.50;;;;;;5083643;28;35973;-77
2022/06/29 07:23:02;;;;;;;2.85;1.50;;;19.10;13.40;;;;;;5083308;28;34371;-77
2022/06/29 07:25:28;;;;;;;2.60;1.58;;;19.10;13.20;;;;;;5083979;28;34538;-77
2022/06/29 07:27:54;;;;;;;2.10;1.58;;;19.20;13.10;;;;;;5067628;28;34093;-77
2022/06/29 07:30:20;;;;;;;3.17;1.70;;;19.20;13.00;;;;;;5083765;28;36182;-77
2022/06/29 07:32:46;;;;;;;4.57;1.58;;;19.30;13.10;;;;;;5083943;28;34189;-77
2022/06/29 07:35:12;;;;;;;2.13;1.60;;;19.40;13.00;;;;;;5083625;28;34451;-76
2022/06/29 07:37:37;;;;;;;1.52;1.42;;;19.50;13.00;;;;;;5083814;28;34153;-77
2022/06/29 07:40:04;;;;;;;1.58;1.48;;;19.50;12.80;;;;;;5100877;28;36015;-77
2022/06/29 07:42:33;;;;;;;1.83;1.50;;;19.60;12.60;;;;;;5066774;28;34217;-77
2022/06/29 07:44:59;;;;;;;1.83;1.45;;;19.70;12.60;;;;;;5083882;28;34135;-77
2022/06/29 07:47:25;;;;;;;1.55;1.40;;;19.80;13.00;;;;;;5083549;28;34194;-77
2022/06/29 07:49:56;;;;;;;2.90;2.10;;;19.90;12.30;;;;;;5066638;28;36376;-77
2022/06/29 07:52:25;;;;;;;1.67;1.40;;;19.90;12.20;;;;;;5067180;28;34194;-77
2022/06/29 07:54:51;;;;;;;5.50;1.50;;;20.00;12.20;;;;;;5084880;28;34676;-78
2022/06/29 07:57:18;;;;;;;4.22;1.67;;;20.10;12.20;;;;;;5084605;28;34245;-77
2022/06/29 07:59:46;;;;;;;2.85;1.73;;;20.30;11.90;;;;;;5083801;28;36087;-77
2022/06/29 08:02:12;;;;;;;1.83;1.50;;;20.40;11.80;;;;;;5083335;28;34193;-78
2022/06/29 08:04:39;;;;;;;2.28;1.58;;;20.50;11.70;;;;;;5083920;28;34134;-76
2022/06/29 08:07:05;;;;;;;4.45;1.50;;;20.60;11.50;;;;;;5083754;28;34154;-76
2022/06/29 08:09:32;;;;;;;4.00;1.70;;;20.60;10.90;;;;;;5066504;28;35745;-76
2022/06/29 08:11:58;;;;;;;2.03;1.73;;;20.70;11.10;;;;;;5082941;28;34226;-77
2022/06/29 08:14:24;;;;;;;2.13;1.38;;;20.80;10.90;;;;;;5084758;28;34228;-77
2022/06/29 08:16:50;;;;;;;1.83;1.55;;;21.00;10.70;;;;;;5062966;28;35665;-77
2022/06/29 08:19:16;;;;;;;3.15;1.60;;;21.00;10.60;;;;;;5082554;28;34366;-77
2022/06/29 08:21:42;;;;;;;3.05;1.60;;;21.10;10.40;;;;;;5082807;28;34187;-76
2022/06/29 08:24:08;;;;;;;6.97;1.70;;;21.30;10.70;;;;;;5065372;28;34369;-77
2022/06/29 08:26:34;;;;;;;5.35;1.77;;;21.30;10.30;;;;;;5082452;28;35414;-77
2022/06/29 08:29:00;;;;;;;3.92;1.20;;;21.40;10.20;;;;;;5083391;28;35422;-77
2022/06/29 08:31:25;;;;;;;3.58;1.40;;;21.50;10.00;;;;;;5083236;28;34182;-77
2022/06/29 08:33:51;;;;;;;4.40;1.45;;;21.60;10.00;;;;;;5066480;28;34140;-77
2022/06/29 08:36:17;;;;;;;1.75;1.40;;;21.70;10.10;;;;;;5084071;28;34134;-78
2022/06/29 08:39:21;;;;;;;2.63;1.45;;;21.80;9.90;;;;;;5084584;28;34230;-77
2022/06/29 08:41:48;;;;;;;7.93;1.85;;;21.90;10.70;;;;;;5082801;28;34286;-76
2022/06/29 08:44:15;;;;;;;3.10;1.48;;;22.00;10.00;;;;;;5082880;28;34177;-77
2022/06/29 08:46:40;;;;;;;3.67;1.58;;;22.20;9.90;;;;;;5082986;28;34102;-76
2022/06/29 08:49:07;;;;;;;1.45;1.35;;;22.30;9.80;;;;;;5082606;28;34232;-76
2022/06/29 08:51:34;;;;;;;3.05;1.38;;;22.40;9.50;;;;;;5083549;28;34158;-77
2022/06/29 08:54:03;;;;;;;1.80;1.48;;;22.50;9.30;;;;;;5066201;28;34070;-77
2022/06/29 08:56:30;;;;;;;4.40;1.23;;;22.70;9.20;;;;;;5066174;28;34383;-77
2022/06/29 08:58:57;;;;;;;1.50;1.40;;;22.90;9.10;;;;;;5066169;28;35900;-77
2022/06/29 09:01:23;;;;;;;2.47;1.30;;;23.20;8.80;;;;;;5084327;28;34155;-77
2022/06/29 09:03:49;;;;;;;5.47;1.40;;;23.40;8.50;;;;;;5086724;28;34359;-77
2022/06/29 09:06:15;;;;;;;2.13;1.55;;;23.80;8.10;;;;;;5083732;28;34138;-77
2022/06/29 09:08:41;;;;;;;5.25;1.30;;;24.20;7.50;;;;;;5082825;28;35931;-78
2022/06/29 09:11:24;;;;;;;1.85;1.27;;;24.60;7.10;;;;;;5107017;28;34142;-78
2022/06/29 09:14:13;;;;;;;1.85;1.67;;;25.10;5.30;;;;;;5104578;28;34161;-77
2022/06/29 09:16:56;;;;;;;3.65;1.30;;;25.50;6.10;;;;;;5066806;28;34181;-78
2022/06/29 09:19:28;;;;;;;3.70;1.25;;;25.80;2.80;;;;;;5083972;28;35910;-77
2022/06/29 09:21:57;;;;;;;1.83;1.17;;;26.30;4.00;;;;;;5085033;28;34168;-77
2022/06/29 09:24:26;;;;;;;1.98;1.40;;;26.50;3.80;;;;;;5082964;28;34066;-78
2022/06/29 09:26:54;;;;;;;2.28;1.15;;;26.60;2.60;;;;;;5083125;28;34374;-78
2022/06/29 09:29:24;;;;;;;3.05;1.30;;;26.80;2.20;;;;;;5063452;28;35960;-79
2022/06/29 09:32:07;;;;;;;1.08;1.00;;;26.90;1.00;;;;;;5070903;28;34292;-78
2022/06/29 09:34:36;;;;;;;0.80;0.77;;;27.40;1.00;;;;;;5091565;28;34169;-79
2022/06/29 09:37:03;;;;;;;2.25;1.10;;;27.60;1.00;;;;;;5089633;28;34119;-78
2022/06/29 09:39:36;;;;;;;0.80;0.80;;;27.80;1.00;;;;;;5088158;28;34137;-78
2022/06/29 09:42:03;;;;;;;1.85;1.20;;;27.80;1.00;;;;;;5072015;28;34289;-78
2022/06/29 09:44:29;;;;;;;1.92;1.05;;;27.60;1.00;;;;;;5089293;28;34374;-78
2022/06/29 09:46:56;;;;;;;1.00;0.90;;;27.50;1.00;;;;;;5088230;28;34236;-78
2022/06/29 09:49:27;;;;;;;1.38;0.90;;;27.50;1.00;;;;;;5070423;28;36045;-78
2022/06/29 09:51:56;;;;;;;1.58;1.17;;;27.60;1.00;;;;;;5070496;28;34188;-78
2022/06/29 09:54:26;;;;;;;6.47;1.10;;;27.60;1.00;;;;;;5088513;28;34503;-78
2022/06/29 09:56:55;;;;;;;1.40;1.00;;;27.90;1.00;;;;;;5071086;28;34013;-78
2022/06/29 10:05:00;;;;;;;1.55;1.40;;;28.30;1.00;;;;;;5068791;28;34257;-78
2022/06/29 10:07:29;;;;;;;3.08;1.10;;;28.60;1.00;;;;;;5104615;28;34425;-79
2022/06/29 10:09:57;;;;;;;1.25;0.90;;;28.90;1.00;;;;;;5088969;28;35509;-78
2022/06/29 10:15:33;;;;;;;0.80;0.80;;;29.40;1.00;;;;;;5088983;28;34194;-78
2022/06/29 10:18:17;;;;;;;1.88;1.13;;;29.70;1.00;;;;;;5069970;28;34146;-79
2022/06/29 10:20:47;;;;;;;3.75;1.00;;;29.80;1.00;;;;;;5071957;28;36777;-78
2022/06/29 10:23:44;;;;;;;2.80;0.95;;;29.70;1.00;;;;;;5080113;28;34209;-78
2022/06/29 10:26:41;;;;;;;5.03;1.10;;;29.90;1.00;;;;;;5085178;28;34175;-78
2022/06/29 10:29:28;;;;;;;1.13;0.85;;;30.00;1.00;;;;;;5069280;28;34255;-79
2022/06/29 10:32:12;;;;;;;1.80;0.90;;;30.40;1.00;;;;;;5068045;28;35846;-79
2022/06/29 10:35:05;;;;;;;1.10;0.95;;;30.60;1.00;;;;;;5084966;28;34080;-79
2022/06/29 10:37:25;;;;;;;1.17;0.93;;;30.70;1.00;;;;;;5073046;28;34455;-80
2022/06/29 10:39:54;;;;;;;1.90;0.98;;;31.00;1.00;;;;;;5088922;28;34385;-78
2022/06/29 10:45:24;;;;;;;0.75;0.75;;;30.90;1.00;;;;;;5074860;28;34510;-78
2022/06/29 10:48:12;;;;;;;2.40;0.85;;;31.00;1.00;;;;;;5066752;28;34322;-79
2022/06/29 10:50:40;;;;;;;1.10;0.80;;;31.10;1.00;;;;;;5054001;28;34143;-80
2022/06/29 10:53:10;;;;;;;2.15;1.08;;;31.40;1.00;;;;;;5070353;28;36290;-79
2022/06/29 10:55:38;;;;;;;2.33;0.90;;;31.60;1.00;;;;;;5089787;28;33996;-78
2022/06/29 10:58:05;;;;;;;2.20;0.90;;;31.90;1.00;;;;;;5070731;28;34329;-79
2022/06/29 11:00:41;;;;;;;1.08;0.98;;;32.10;1.00;;;;;;5086703;28;34090;-76
2022/06/29 11:03:10;;;;;;;1.20;0.60;;;32.20;1.00;;;;;;5068048;28;35901;-77
2022/06/29 11:05:38;;;;;;;2.25;0.80;;;32.40;1.00;;;;;;5069005;28;34315;-77
2022/06/29 11:13:29;;;;;;;1.95;0.80;;;32.50;1.00;;;;;;5084411;28;34201;-77
2022/06/29 11:15:57;;;;;;;0.75;0.70;;;32.40;1.00;;;;;;5081316;28;34154;-76
2022/06/29 11:18:27;;;;;;;0.90;0.65;;;32.20;1.00;;;;;;5061085;28;34170;-76
2022/06/29 11:20:54;;;;;;;1.23;0.70;;;32.10;1.00;;;;;;5048123;28;34014;-77
2022/06/29 11:23:30;;;;;;;5.65;1.08;;;31.90;1.00;;;;;;5068490;28;35858;-78
2022/06/29 11:25:56;;;;;;;1.30;0.68;;;31.90;1.00;;;;;;5085489;28;34024;-76
2022/06/29 11:28:27;;;;;;;1.98;0.75;;;31.80;1.00;;;;;;5067845;28;34227;-77
2022/06/29 11:31:05;;;;;;;0.88;0.73;;;31.90;1.00;;;;;;5086585;28;34576;-78
2022/06/29 11:33:33;;;;;;;1.50;0.52;;;32.00;1.00;;;;;;5065040;28;35582;-78
2022/06/29 11:36:06;;;;;;;2.20;0.77;;;32.10;1.00;;;;;;5082013;28;34206;-77
2022/06/29 11:38:37;;;;;;;1.38;0.60;;;32.30;1.00;;;;;;5075204;28;34325;-76
2022/06/29 11:41:12;;;;;;;2.15;0.80;;;32.30;1.00;;;;;;5048851;28;34021;-77
2022/06/29 11:43:38;;;;;;;1.85;0.68;;;32.50;1.00;;;;;;5065217;28;35709;-78
2022/06/29 11:46:04;;;;;;;1.98;0.88;;;32.50;1.00;;;;;;5066587;28;34098;-78
2022/06/29 11:48:31;;;;;;;0.95;0.65;;;32.70;1.00;;;;;;5066833;28;34190;-78
2022/06/29 11:51:00;;;;;;;1.77;0.70;;;32.80;1.00;;;;;;5065716;28;34193;-77
2022/06/29 11:53:44;;;;;;;0.95;0.70;;;32.90;1.00;;;;;;5065321;28;36294;-77
2022/06/29 11:56:13;;;;;;;1.55;0.73;;;33.10;1.00;;;;;;5047962;28;34164;-77
2022/06/29 11:58:42;;;;;;;1.35;0.77;;;33.20;1.00;;;;;;5078377;28;34010;-78
2022/06/29 12:01:13;;;;;;;0.57;0.57;;;33.00;1.00;;;;;;5068312;28;34111;-78
2022/06/29 12:03:47;;;;;;;0.98;0.65;;;33.00;1.00;;;;;;5067810;28;35500;-77
2022/06/29 12:06:15;;;;;;;4.60;0.70;;;32.90;1.00;;;;;;5084141;28;34094;-77
2022/06/29 12:08:41;;;;;;;2.15;0.80;;;33.00;1.00;;;;;;5085266;28;34000;-78
2022/06/29 12:11:07;;;;;;;1.98;0.80;;;32.90;1.00;;;;;;5085955;28;34546;-78
2022/06/29 12:13:33;;;;;;;0.95;0.88;;;32.90;1.00;;;;;;5084624;28;35851;-78
2022/06/29 12:15:59;;;;;;;1.17;0.80;;;32.80;1.00;;;;;;5085263;28;34179;-77
2022/06/29 12:18:25;;;;;;;2.42;0.52;;;32.80;1.00;;;;;;5084451;28;34476;-77
2022/06/29 12:20:51;;;;;;;1.63;0.65;;;33.00;1.00;;;;;;5083950;28;34205;-78
2022/06/29 12:23:17;;;;;;;0.55;0.55;;;33.10;1.00;;;;;;5083284;28;35650;-78
2022/06/29 12:25:44;;;;;;;0.95;0.77;;;33.20;1.00;;;;;;5085796;28;34451;-79
2022/06/29 12:28:10;;;;;;;0.70;0.60;;;33.40;1.00;;;;;;5067023;28;34152;-77
2022/06/29 12:30:36;;;;;;;0.70;0.70;;;33.60;1.00;;;;;;5084516;28;34174;-76
2022/06/29 12:33:02;;;;;;;0.98;0.80;;;33.80;1.00;;;;;;5084500;28;34219;-77
2022/06/29 12:35:29;;;;;;;1.13;0.90;;;34.00;1.00;;;;;;5084074;28;34234;-77
2022/06/29 12:37:58;;;;;;;1.98;0.90;;;34.10;1.00;;;;;;5084066;28;34070;-78
2022/06/29 12:40:25;;;;;;;0.82;0.77;;;34.10;1.00;;;;;;5066914;28;34268;-78
2022/06/29 12:42:52;;;;;;;0.90;0.80;;;34.10;1.00;;;;;;5064661;28;34928;-78
2022/06/29 12:45:18;;;;;;;1.73;0.90;;;33.90;1.00;;;;;;5063108;28;34131;-76
2022/06/29 12:47:44;;;;;;;1.10;0.80;;;33.90;1.00;;;;;;5046444;28;34358;-77
2022/06/29 12:50:10;;;;;;;0.73;0.70;;;33.90;1.00;;;;;;5064492;28;34158;-77
2022/06/29 12:52:40;;;;;;;1.25;0.73;;;33.90;1.00;;;;;;5064381;28;35500;-78
2022/06/29 12:55:08;;;;;;;1.70;0.75;;;33.80;1.00;;;;;;5064405;28;34177;-77
2022/06/29 12:57:35;;;;;;;1.80;0.70;;;33.80;1.00;;;;;;5047374;28;34263;-80
2022/06/29 13:00:03;;;;;;;2.13;0.60;;;33.80;1.00;;;;;;5064681;28;34541;-77
2022/06/29 13:02:31;;;;;;;0.80;0.80;;;33.60;1.00;;;;;;5062516;28;36069;-76
2022/06/29 13:04:56;;;;;;;1.45;0.70;;;33.60;1.00;;;;;;5062385;28;34080;-76
2022/06/29 13:07:26;;;;;;;0.80;0.77;;;33.50;1.00;;;;;;5061805;28;34158;-76
2022/06/29 13:09:53;;;;;;;2.63;0.80;;;33.60;1.00;;;;;;5062437;28;34424;-76
2022/06/29 13:12:19;;;;;;;0.98;0.80;;;33.60;1.00;;;;;;5062549;28;35738;-78
2022/06/29 13:14:45;;;;;;;1.00;0.90;;;33.60;1.00;;;;;;5062623;28;34072;-77